createdAt,value
2022-08-06T00:00:10.057Z,55.94
2022-08-06T00:02:36.462Z,56.13
2022-08-06T00:05:05.960Z,56.10
2022-08-06T00:07:45.347Z,56.01
2022-08-06T00:10:15.399Z,56.06
2022-08-06T00:12:41.089Z,56.08
2022-08-06T00:15:12.680Z,56.07
2022-08-06T00:17:40.178Z,56.06
2022-08-06T00:20:06.976Z,56.14
2022-08-06T00:22:36.107Z,56.30
2022-08-06T00:25:02.574Z,55.97
2022-08-06T00:27:29.306Z,55.94
2022-08-06T00:30:06.518Z,56.04
2022-08-06T00:32:40.847Z,55.63
2022-08-06T00:35:06.768Z,55.97
2022-08-06T00:37:54.562Z,55.93
2022-08-06T00:40:24.411Z,55.97
2022-08-06T00:42:50.662Z,55.91
2022-08-06T00:45:24.301Z,55.99
2022-08-06T00:48:02.149Z,56.00
2022-08-06T00:50:30.365Z,55.97
2022-08-06T00:52:56.649Z,55.96
2022-08-06T00:55:32.112Z,56.00
2022-08-06T00:58:01.910Z,55.88
2022-08-06T01:00:30.409Z,55.85
2022-08-06T01:02:56.530Z,55.99
2022-08-06T01:06:04.715Z,55.94
2022-08-06T01:08:07.764Z,56.00
2022-08-06T01:10:42.567Z,56.04
2022-08-06T01:13:23.371Z,55.97
2022-08-06T01:16:08.776Z,55.94
2022-08-06T01:18:42.133Z,56.18
2022-08-06T01:22:29.947Z,55.96
2022-08-06T01:27:58.724Z,55.97
2022-08-06T01:30:29.744Z,56.22
2022-08-06T01:33:10.671Z,55.88
2022-08-06T01:35:47.656Z,55.85
2022-08-06T01:38:24.845Z,55.93
2022-08-06T01:40:51.840Z,55.96
2022-08-06T01:43:23.324Z,56.05
2022-08-06T01:46:06.933Z,55.80
2022-08-06T01:48:35.246Z,55.66
2022-08-06T01:51:03.041Z,55.92
2022-08-06T01:53:56.734Z,56.13
2022-08-06T01:56:25.784Z,55.83
2022-08-06T01:58:58.154Z,55.91
2022-08-06T02:01:24.418Z,55.90
2022-08-06T02:03:58.705Z,55.97
2022-08-06T02:06:31.483Z,55.85
2022-08-06T02:08:59.006Z,56.00
2022-08-06T02:12:02.426Z,56.05
2022-08-06T02:14:31.654Z,55.84
2022-08-06T02:16:59.203Z,55.93
2022-08-06T02:19:48.092Z,56.00
2022-08-06T02:22:30.290Z,55.99
2022-08-06T02:25:02.478Z,56.06
2022-08-06T02:27:43.613Z,55.92
2022-08-06T02:30:15.001Z,55.59
2022-08-06T02:32:44.559Z,55.90
2022-08-06T02:35:12.450Z,55.83
2022-08-06T02:38:02.639Z,55.91
2022-08-06T02:40:35.120Z,55.91
2022-08-06T02:43:09.024Z,55.94
2022-08-06T02:45:40.241Z,56.02
2022-08-06T02:51:43.252Z,55.88
2022-08-06T02:54:04.189Z,55.93
2022-08-06T02:56:32.793Z,55.93
2022-08-06T02:58:59.311Z,55.94
2022-08-06T03:01:43.259Z,56.09
2022-08-06T03:04:10.270Z,55.89
2022-08-06T03:06:36.373Z,55.88
2022-08-06T03:09:05.453Z,55.86
2022-08-06T03:11:33.779Z,55.91
2022-08-06T03:14:01.769Z,55.88
2022-08-06T03:16:29.761Z,55.98
2022-08-06T03:19:55.290Z,55.77
2022-08-06T03:21:50.724Z,55.80
2022-08-06T03:24:23.826Z,55.86
2022-08-06T03:26:53.738Z,55.87
2022-08-06T03:29:22.329Z,55.84
2022-08-06T03:31:58.403Z,55.82
2022-08-06T03:34:26.245Z,55.90
2022-08-06T03:36:52.347Z,55.78
2022-08-06T03:39:21.908Z,55.85
2022-08-06T03:42:07.548Z,55.87
2022-08-06T03:44:34.058Z,55.85
2022-08-06T03:47:08.411Z,55.88
2022-08-06T03:49:41.277Z,55.94
2022-08-06T03:52:08.815Z,55.85
2022-08-06T03:54:48.801Z,55.83
2022-08-06T03:57:22.099Z,55.78
2022-08-06T04:00:01.722Z,55.79
2022-08-06T04:02:36.789Z,55.65
2022-08-06T04:05:11.870Z,55.85
2022-08-06T04:07:54.688Z,55.88
2022-08-06T04:10:33.019Z,55.85
2022-08-06T04:13:07.495Z,55.88
2022-08-06T04:15:48.226Z,55.57
2022-08-06T04:18:16.153Z,55.79
2022-08-06T04:20:46.225Z,55.83
2022-08-06T04:23:12.655Z,55.82
2022-08-06T04:25:44.003Z,55.69
2022-08-06T04:28:10.714Z,55.80
2022-08-06T04:30:38.489Z,55.84
2022-08-06T04:33:05.770Z,55.82
2022-08-06T04:36:07.919Z,55.70
2022-08-06T04:38:28.299Z,55.78
2022-08-06T04:40:57.531Z,55.71
2022-08-06T04:43:23.390Z,55.72
2022-08-06T04:46:17.285Z,55.70
2022-08-06T04:48:47.343Z,55.74
2022-08-06T04:51:17.250Z,55.84
2022-08-06T04:54:00.029Z,55.79
2022-08-06T04:56:33.253Z,55.88
2022-08-06T04:59:04.298Z,55.74
2022-08-06T05:01:30.120Z,55.84
2022-08-06T05:04:13.426Z,55.78
2022-08-06T05:06:55.642Z,55.94
2022-08-06T05:09:42.143Z,55.77
2022-08-06T05:12:16.910Z,55.77
2022-08-06T05:14:51.457Z,55.86
2022-08-06T05:17:21.557Z,55.63
2022-08-06T05:19:56.405Z,55.67
2022-08-06T05:22:52.309Z,55.79
2022-08-06T05:25:19.235Z,55.63
2022-08-06T05:28:03.269Z,55.87
2022-08-06T05:30:34.425Z,55.72
2022-08-06T05:33:02.344Z,55.91
2022-08-06T05:35:41.302Z,55.76
2022-08-06T05:38:11.506Z,55.88
2022-08-06T05:40:52.629Z,55.70
2022-08-06T05:43:23.194Z,55.80
2022-08-06T05:45:57.956Z,55.70
2022-08-06T05:48:29.442Z,55.70
2022-08-06T05:51:01.314Z,55.71
2022-08-06T05:54:03.415Z,55.92
2022-08-06T05:56:38.683Z,55.71
2022-08-06T05:59:29.388Z,55.61
2022-08-06T06:01:57.247Z,55.81
2022-08-06T06:04:33.059Z,55.69
2022-08-06T06:07:00.289Z,55.84
2022-08-06T06:09:56.936Z,55.68
2022-08-06T06:12:23.572Z,55.81
2022-08-06T06:14:57.783Z,55.74
2022-08-06T06:17:59.929Z,55.69
2022-08-06T06:20:58.281Z,55.61
2022-08-06T06:23:46.567Z,55.54
2022-08-06T06:29:02.590Z,55.69
2022-08-06T06:32:40.850Z,55.71
2022-08-06T06:38:10.147Z,55.67
2022-08-06T06:41:03.147Z,55.73
2022-08-06T06:44:06.161Z,55.65
2022-08-06T06:46:51.417Z,55.74
2022-08-06T06:50:00.640Z,55.68
2022-08-06T06:52:30.098Z,55.67
2022-08-06T06:55:05.072Z,55.64
2022-08-06T06:57:45.700Z,55.62
2022-08-06T07:00:46.161Z,55.72
2022-08-06T07:03:00.309Z,55.72
2022-08-06T07:06:05.936Z,55.72
2022-08-06T07:08:15.317Z,55.79
2022-08-06T07:10:56.246Z,55.57
2022-08-06T07:13:23.280Z,55.64
2022-08-06T07:16:09.489Z,55.80
2022-08-06T07:18:55.611Z,55.68
2022-08-06T07:21:21.552Z,55.77
2022-08-06T07:24:07.399Z,55.57
2022-08-06T07:26:37.524Z,55.57
2022-08-06T07:29:15.709Z,55.65
2022-08-06T07:32:02.099Z,55.67
2022-08-06T07:34:28.057Z,55.55
2022-08-06T07:36:57.201Z,55.69
2022-08-06T07:39:27.861Z,55.69
2022-08-06T07:42:11.442Z,55.71
2022-08-06T07:44:55.039Z,55.64
2022-08-06T07:47:29.666Z,55.90
2022-08-06T07:50:11.525Z,55.67
2022-08-06T07:52:39.955Z,55.68
2022-08-06T07:55:10.870Z,55.62
2022-08-06T07:57:54.603Z,55.50
2022-08-06T08:00:22.833Z,55.63
2022-08-06T08:03:09.288Z,55.63
2022-08-06T08:06:00.752Z,55.69
2022-08-06T08:08:27.390Z,55.78
2022-08-06T08:10:54.091Z,55.63
2022-08-06T08:13:40.938Z,55.64
2022-08-06T08:16:08.917Z,55.66
2022-08-06T08:18:34.874Z,55.58
2022-08-06T08:21:04.161Z,55.71
2022-08-06T08:23:36.377Z,55.63
2022-08-06T08:26:04.591Z,55.49
2022-08-06T08:28:30.838Z,55.61
2022-08-06T08:30:59.179Z,55.62
2022-08-06T08:33:27.079Z,55.57
2022-08-06T08:36:00.902Z,55.49
2022-08-06T08:38:29.896Z,55.70
2022-08-06T08:40:56.170Z,55.67
2022-08-06T08:43:59.403Z,55.54
2022-08-06T08:46:12.097Z,55.58
2022-08-06T08:48:38.217Z,55.72
2022-08-06T08:51:04.719Z,55.63
2022-08-06T08:53:45.438Z,55.58
2022-08-06T08:57:09.771Z,55.64
2022-08-06T08:59:56.260Z,55.61
2022-08-06T09:01:53.245Z,55.62
2022-08-06T09:04:24.588Z,55.67
2022-08-06T09:06:53.961Z,55.50
2022-08-06T09:09:19.930Z,55.55
2022-08-06T09:12:04.868Z,55.61
2022-08-06T09:14:43.946Z,55.87
2022-08-06T09:17:12.750Z,55.67
2022-08-06T09:19:41.604Z,55.72
2022-08-06T09:22:09.151Z,55.40
2022-08-06T09:24:36.059Z,55.59
2022-08-06T09:27:45.145Z,55.62
2022-08-06T09:30:04.411Z,55.51
2022-08-06T09:32:54.697Z,55.56
2022-08-06T09:35:43.700Z,55.62
2022-08-06T09:38:11.127Z,55.70
2022-08-06T09:41:01.851Z,55.47
2022-08-06T09:43:34.235Z,55.58
2022-08-06T09:46:14.666Z,55.66
2022-08-06T09:49:48.780Z,55.66
2022-08-06T09:51:50.473Z,55.47
2022-08-06T09:54:24.581Z,55.70
2022-08-06T09:56:58.599Z,55.74
2022-08-06T09:59:24.268Z,55.55
2022-08-06T10:01:50.532Z,55.55
2022-08-06T10:04:36.249Z,55.50
2022-08-06T10:07:08.368Z,55.54
2022-08-06T10:09:41.378Z,55.47
2022-08-06T10:12:19.746Z,55.62
2022-08-06T10:14:45.588Z,55.59
2022-08-06T10:17:14.093Z,55.66
2022-08-06T10:19:52.127Z,55.61
2022-08-06T10:22:19.163Z,55.47
2022-08-06T10:24:49.868Z,55.56
2022-08-06T10:27:20.270Z,55.55
2022-08-06T10:29:55.633Z,55.62
2022-08-06T10:32:59.125Z,55.81
2022-08-06T10:35:26.639Z,55.65
2022-08-06T10:38:03.886Z,55.72
2022-08-06T10:40:31.527Z,55.58
2022-08-06T10:42:59.178Z,55.62
2022-08-06T10:45:26.962Z,55.66
2022-08-06T10:48:58.493Z,55.63
2022-08-06T10:50:50.902Z,55.54
2022-08-06T10:54:02.085Z,55.55
2022-08-06T10:56:08.967Z,55.56
2022-08-06T10:58:35.632Z,55.76
2022-08-06T11:01:06.208Z,55.66
2022-08-06T11:03:46.591Z,55.50
2022-08-06T11:06:35.766Z,55.49
2022-08-06T11:09:59.571Z,55.71
2022-08-06T11:15:23.157Z,55.52
2022-08-06T11:17:52.386Z,55.63
2022-08-06T11:20:40.198Z,55.56
2022-08-06T11:25:52.382Z,55.52
2022-08-06T11:28:20.569Z,55.64
2022-08-06T11:30:49.501Z,55.48
2022-08-06T11:33:19.604Z,55.48
2022-08-06T11:35:53.392Z,55.59
2022-08-06T11:38:53.658Z,55.46
2022-08-06T11:41:54.454Z,55.59
2022-08-06T11:44:17.007Z,55.62
2022-08-06T11:46:48.690Z,55.41
2022-08-06T11:49:19.779Z,55.68
2022-08-06T11:52:06.272Z,55.65
2022-08-06T11:54:36.741Z,55.60
2022-08-06T12:00:00.727Z,55.64
2022-08-06T12:02:47.375Z,55.70
2022-08-06T12:08:22.356Z,55.66
2022-08-06T12:11:30.120Z,55.65
2022-08-06T12:14:32.797Z,55.70
2022-08-06T12:16:54.012Z,55.59
2022-08-06T12:19:20.932Z,55.51
2022-08-06T12:21:51.980Z,55.40
2022-08-06T12:24:24.026Z,55.52
2022-08-06T12:26:51.050Z,55.60
2022-08-06T12:29:16.709Z,55.59
2022-08-06T12:31:48.615Z,55.69
2022-08-06T12:34:27.600Z,55.37
2022-08-06T12:36:53.676Z,55.59
2022-08-06T12:39:31.873Z,55.42
2022-08-06T12:42:04.943Z,55.71
2022-08-06T12:44:57.155Z,55.60
2022-08-06T12:47:18.295Z,55.87
2022-08-06T12:50:22.711Z,55.48
2022-08-06T12:53:06.699Z,55.79
2022-08-06T12:55:56.811Z,55.55
2022-08-06T12:58:41.261Z,55.45
2022-08-06T13:01:13.514Z,55.58
2022-08-06T13:03:44.455Z,55.55
2022-08-06T13:06:32.002Z,55.73
2022-08-06T13:09:02.134Z,55.46
2022-08-06T13:11:34.698Z,55.58
2022-08-06T13:14:18.374Z,55.50
2022-08-06T13:16:56.742Z,55.48
2022-08-06T13:19:32.309Z,55.41
2022-08-06T13:22:06.313Z,55.71
2022-08-06T13:24:35.333Z,55.44
2022-08-06T13:27:02.699Z,55.75
2022-08-06T13:30:34.617Z,55.75
2022-08-06T13:32:27.345Z,55.50
2022-08-06T13:35:03.649Z,55.51
2022-08-06T13:37:57.236Z,55.55
2022-08-06T13:40:46.863Z,55.68
2022-08-06T13:43:38.020Z,55.52
2022-08-06T13:46:20.260Z,55.48
2022-08-06T13:48:55.638Z,55.72
2022-08-06T13:51:27.855Z,55.52
2022-08-06T13:53:57.157Z,55.52
2022-08-06T13:56:28.927Z,55.57
2022-08-06T13:58:56.746Z,55.71
2022-08-06T14:01:22.515Z,55.67
2022-08-06T14:03:48.176Z,55.51
2022-08-06T14:06:15.078Z,55.79
2022-08-06T14:08:43.689Z,55.57
2022-08-06T14:11:09.410Z,55.42
2022-08-06T14:13:35.032Z,55.67
2022-08-06T14:16:01.395Z,55.67
2022-08-06T14:18:28.447Z,55.63
2022-08-06T14:20:54.396Z,55.65
2022-08-06T14:23:20.138Z,55.54
2022-08-06T14:26:00.410Z,55.62
2022-08-06T14:28:29.490Z,55.57
2022-08-06T14:30:55.735Z,55.62
2022-08-06T14:33:26.357Z,55.64
2022-08-06T14:36:02.501Z,55.71
2022-08-06T14:38:31.680Z,55.58
2022-08-06T14:41:40.113Z,55.65
2022-08-06T14:44:24.730Z,55.65
2022-08-06T14:46:50.639Z,55.57
2022-08-06T14:49:16.328Z,55.82
2022-08-06T14:52:19.669Z,55.63
2022-08-06T14:54:32.091Z,55.55
2022-08-06T14:57:00.048Z,55.64
2022-08-06T14:59:25.851Z,55.56
2022-08-06T15:01:58.296Z,55.55
2022-08-06T15:04:24.915Z,55.59
2022-08-06T15:06:53.850Z,55.47
2022-08-06T15:09:28.143Z,55.56
2022-08-06T15:12:11.601Z,55.42
2022-08-06T15:14:37.591Z,55.66
2022-08-06T15:17:48.952Z,55.48
2022-08-06T15:19:50.587Z,55.66
2022-08-06T15:22:31.399Z,55.60
2022-08-06T15:25:09.532Z,55.52
2022-08-06T15:27:44.457Z,55.47
2022-08-06T15:30:11.137Z,55.67
2022-08-06T15:32:36.775Z,55.72
2022-08-06T15:35:04.610Z,55.50
2022-08-06T15:37:54.988Z,55.55
2022-08-06T15:40:15.986Z,55.42
2022-08-06T15:42:41.914Z,55.67
2022-08-06T15:45:09.074Z,55.65
2022-08-06T15:47:54.729Z,55.59
2022-08-06T15:50:32.725Z,55.59
2022-08-06T15:53:05.256Z,55.56
2022-08-06T15:55:49.220Z,55.56
2022-08-06T15:58:15.246Z,55.54
2022-08-06T16:01:03.680Z,55.67
2022-08-06T16:03:31.821Z,55.47
2022-08-06T16:06:09.213Z,55.57
2022-08-06T16:08:42.432Z,55.61
2022-08-06T16:11:11.540Z,55.44
2022-08-06T16:13:38.592Z,55.65
2022-08-06T16:16:05.332Z,55.65
2022-08-06T16:18:33.242Z,55.47
2022-08-06T16:21:06.248Z,55.63
2022-08-06T16:23:56.353Z,55.73
2022-08-06T16:26:39.656Z,55.46
2022-08-06T16:29:09.161Z,55.85
2022-08-06T16:31:47.603Z,55.54
2022-08-06T16:34:15.672Z,55.56
2022-08-06T16:36:43.475Z,55.59
2022-08-06T16:39:12.690Z,55.41
2022-08-06T16:41:58.859Z,55.59
2022-08-06T16:44:34.873Z,55.64
2022-08-06T16:47:05.288Z,55.50
2022-08-06T16:50:18.063Z,55.64
2022-08-06T16:52:42.868Z,55.51
2022-08-06T16:55:10.959Z,55.48
2022-08-06T16:57:38.922Z,55.55
2022-08-06T17:00:06.462Z,55.64
2022-08-06T17:02:42.226Z,55.77
2022-08-06T17:05:17.319Z,55.79
2022-08-06T17:07:54.261Z,55.66
2022-08-06T17:10:24.830Z,55.63
2022-08-06T17:12:57.916Z,55.49
2022-08-06T17:15:36.025Z,55.60
2022-08-06T17:18:02.258Z,55.57
2022-08-06T17:20:28.722Z,55.60
2022-08-06T17:22:54.856Z,55.63
2022-08-06T17:25:22.024Z,55.71
2022-08-06T17:27:57.673Z,55.58
2022-08-06T17:30:24.273Z,55.63
2022-08-06T17:32:52.735Z,55.47
2022-08-06T17:38:06.000Z,55.46
2022-08-06T17:40:38.571Z,55.56
2022-08-06T17:43:13.003Z,55.56
2022-08-06T17:45:52.378Z,55.64
2022-08-06T17:48:26.603Z,55.50
2022-08-06T17:50:56.533Z,55.60
2022-08-06T17:53:22.652Z,55.50
2022-08-06T17:56:00.521Z,55.62
2022-08-06T17:58:38.150Z,55.48
2022-08-06T18:01:16.693Z,55.51
2022-08-06T18:03:51.373Z,55.60
2022-08-06T18:06:18.137Z,55.84
2022-08-06T18:08:50.547Z,55.59
2022-08-06T18:11:16.908Z,55.75
2022-08-06T18:13:52.607Z,55.66
2022-08-06T18:16:20.271Z,55.49
2022-08-06T18:18:47.354Z,55.64
2022-08-06T18:21:24.149Z,55.57
2022-08-06T18:23:51.029Z,55.56
2022-08-06T18:26:21.840Z,55.60
2022-08-06T18:28:56.589Z,55.57
2022-08-06T18:31:23.422Z,55.54
2022-08-06T18:34:16.180Z,55.65
2022-08-06T18:36:44.644Z,55.50
2022-08-06T18:39:14.699Z,55.47
2022-08-06T18:41:43.045Z,55.58
2022-08-06T18:44:26.949Z,55.57
2022-08-06T18:46:56.311Z,55.75
2022-08-06T18:49:32.370Z,55.62
2022-08-06T18:52:24.868Z,55.47
2022-08-06T18:54:56.186Z,55.57
2022-08-06T18:57:28.481Z,55.48
2022-08-06T19:00:04.914Z,55.52
2022-08-06T19:02:43.771Z,55.60
2022-08-06T19:05:10.456Z,55.58
2022-08-06T19:07:40.506Z,55.62
2022-08-06T19:10:17.246Z,55.58
2022-08-06T19:12:44.587Z,55.59
2022-08-06T19:15:11.012Z,55.62
2022-08-06T19:18:09.586Z,55.47
2022-08-06T19:20:23.699Z,55.56
2022-08-06T19:22:53.885Z,55.56
2022-08-06T19:25:52.100Z,55.63
2022-08-06T19:28:35.690Z,55.64
2022-08-06T19:31:01.197Z,55.56
2022-08-06T19:33:29.711Z,55.60
2022-08-06T19:36:11.292Z,55.48
2022-08-06T19:38:41.973Z,55.45
2022-08-06T19:41:07.724Z,55.57
2022-08-06T19:44:27.767Z,55.60
2022-08-06T19:46:30.640Z,55.40
2022-08-06T19:49:00.608Z,55.61
2022-08-06T19:52:04.213Z,55.58
2022-08-06T19:54:15.525Z,55.58
2022-08-06T19:56:43.059Z,55.57
2022-08-06T20:00:54.380Z,55.58
2022-08-06T20:02:09.182Z,55.64
2022-08-06T20:04:39.884Z,55.60
2022-08-06T20:07:24.244Z,55.70
2022-08-06T20:09:59.768Z,55.46
2022-08-06T20:12:32.033Z,55.59
2022-08-06T20:15:00.142Z,55.59
2022-08-06T20:17:29.926Z,55.62
2022-08-06T20:20:12.899Z,55.50
2022-08-06T20:22:40.978Z,55.47
2022-08-06T20:25:18.519Z,55.50
2022-08-06T20:29:09.535Z,55.48
2022-08-06T20:30:31.588Z,55.50
2022-08-06T20:32:57.711Z,55.57
2022-08-06T20:35:32.383Z,55.49
2022-08-06T20:37:58.337Z,55.60
2022-08-06T20:41:26.551Z,55.55
2022-08-06T20:44:03.902Z,55.51
2022-08-06T20:46:04.864Z,55.41
2022-08-06T20:48:31.108Z,55.62
2022-08-06T20:50:56.767Z,55.63
2022-08-06T20:53:22.724Z,55.72
2022-08-06T20:55:48.897Z,55.40
2022-08-06T20:58:14.520Z,55.44
2022-08-06T21:00:40.743Z,55.51
2022-08-06T21:05:10.090Z,55.52
2022-08-06T21:05:52.697Z,55.48
2022-08-06T21:08:27.163Z,55.56
2022-08-06T21:10:57.161Z,55.64
2022-08-06T21:13:35.514Z,55.50
2022-08-06T21:16:13.521Z,55.51
2022-08-06T21:18:40.833Z,55.41
2022-08-06T21:21:06.547Z,55.61
2022-08-06T21:23:55.636Z,55.35
2022-08-06T21:26:18.542Z,55.51
2022-08-06T21:28:54.138Z,55.49
2022-08-06T21:31:22.328Z,55.59
2022-08-06T21:33:52.261Z,55.59
2022-08-06T21:36:19.618Z,55.50
2022-08-06T21:38:45.290Z,55.38
2022-08-06T21:41:58.473Z,55.54
2022-08-06T21:44:17.828Z,55.51
2022-08-06T21:46:44.439Z,55.59
2022-08-06T21:49:15.896Z,55.55
2022-08-06T21:52:01.861Z,55.61
2022-08-06T21:54:28.984Z,55.51
2022-08-06T21:56:55.210Z,55.61
2022-08-06T21:59:24.024Z,55.58
2022-08-06T22:02:10.328Z,55.43
2022-08-06T22:04:45.732Z,55.42
2022-08-06T22:07:18.790Z,55.44
2022-08-06T22:09:52.267Z,55.42
2022-08-06T22:12:36.790Z,55.54
2022-08-06T22:15:05.334Z,55.51
2022-08-06T22:17:59.103Z,55.63
2022-08-06T22:20:21.166Z,55.58
2022-08-06T22:22:52.569Z,55.59
2022-08-06T22:25:19.142Z,55.47
2022-08-06T22:27:49.284Z,55.48
2022-08-06T22:30:42.236Z,55.43
2022-08-06T22:33:16.348Z,55.46
2022-08-06T22:35:57.161Z,55.56
2022-08-06T22:38:24.678Z,55.52
2022-08-06T22:40:50.860Z,55.39
2022-08-06T22:43:23.821Z,55.57
2022-08-06T22:46:01.901Z,55.49
2022-08-06T22:48:36.291Z,55.41
2022-08-06T22:51:06.074Z,55.59
2022-08-06T22:54:29.087Z,55.54
2022-08-06T22:56:27.998Z,55.36
2022-08-06T22:59:05.984Z,55.50
2022-08-06T23:02:07.158Z,55.46
2022-08-06T23:04:26.890Z,55.49
2022-08-06T23:06:54.824Z,55.48
2022-08-06T23:09:20.701Z,55.47
2022-08-06T23:11:59.151Z,55.52
2022-08-06T23:14:31.685Z,55.57
2022-08-06T23:16:58.148Z,55.34
2022-08-06T23:19:24.232Z,55.43
2022-08-06T23:21:56.477Z,55.44
2022-08-06T23:24:35.359Z,55.44
2022-08-06T23:27:03.563Z,55.46
2022-08-06T23:29:29.675Z,55.54
2022-08-06T23:32:00.978Z,55.42
2022-08-06T23:34:34.135Z,55.29
2022-08-06T23:37:02.516Z,55.38
2022-08-06T23:39:38.360Z,55.32
2022-08-06T23:42:05.294Z,55.34
2022-08-06T23:44:42.465Z,55.34
2022-08-06T23:48:02.984Z,55.03
2022-08-06T23:49:54.094Z,55.38
2022-08-06T23:52:23.709Z,55.39
2022-08-06T23:54:49.690Z,55.48
2022-08-06T23:57:32.965Z,55.50
